createdAt,value
2022-10-17T00:03:42.169Z,15.16
2022-10-17T00:07:26.580Z,15.13
2022-10-17T00:11:14.102Z,15.13
2022-10-17T00:14:56.838Z,15.09
2022-10-17T00:18:39.651Z,15.03
2022-10-17T00:22:22.337Z,14.96
2022-10-17T00:26:06.909Z,14.90
2022-10-17T00:29:50.193Z,14.82
2022-10-17T00:33:33.452Z,14.77
2022-10-17T00:37:16.118Z,14.74
2022-10-17T00:40:58.851Z,14.71
2022-10-17T00:45:18.417Z,14.70
2022-10-17T00:49:06.222Z,14.66
2022-10-17T00:52:52.804Z,14.57
2022-10-17T00:56:35.792Z,14.55
2022-10-17T01:00:22.855Z,14.51
2022-10-17T01:04:05.964Z,14.45
2022-10-17T01:07:50.006Z,14.43
2022-10-17T01:11:38.509Z,14.41
2022-10-17T01:15:32.076Z,14.36
2022-10-17T01:19:36.280Z,14.33
2022-10-17T01:24:03.499Z,14.34
2022-10-17T01:27:57.348Z,14.24
2022-10-17T01:31:46.407Z,14.14
2022-10-17T01:35:31.938Z,14.11
2022-10-17T01:39:18.290Z,14.11
2022-10-17T01:43:05.265Z,14.06
2022-10-17T01:46:50.900Z,14.03
2022-10-17T01:50:35.383Z,14.01
2022-10-17T01:54:20.646Z,13.94
2022-10-17T01:58:07.310Z,13.89
2022-10-17T02:01:53.987Z,13.89
2022-10-17T02:05:39.067Z,13.88
2022-10-17T02:09:23.610Z,13.88
2022-10-17T02:13:11.382Z,13.84
2022-10-17T02:17:03.933Z,13.83
2022-10-17T02:20:52.944Z,13.77
2022-10-17T02:24:39.550Z,13.65
2022-10-17T02:28:24.319Z,13.58
2022-10-17T02:32:11.055Z,13.57
2022-10-17T02:35:56.185Z,13.60
2022-10-17T02:39:39.458Z,13.57
2022-10-17T02:43:23.015Z,13.55
2022-10-17T02:47:12.520Z,13.51
2022-10-17T02:51:00.122Z,13.46
2022-10-17T02:54:44.663Z,13.39
2022-10-17T02:58:31.609Z,13.38
2022-10-17T03:02:15.705Z,13.29
2022-10-17T03:05:58.506Z,13.24
2022-10-17T03:09:41.172Z,13.26
2022-10-17T03:13:23.948Z,13.33
2022-10-17T03:17:06.627Z,13.31
2022-10-17T03:20:50.767Z,13.34
2022-10-17T03:24:33.505Z,13.34
2022-10-17T03:28:16.320Z,13.33
2022-10-17T03:31:59.072Z,13.25
2022-10-17T03:35:41.791Z,13.22
2022-10-17T03:39:25.992Z,13.17
2022-10-17T03:43:08.728Z,13.08
2022-10-17T03:46:51.473Z,13.03
2022-10-17T03:50:34.167Z,13.01
2022-10-17T03:54:16.917Z,12.99
2022-10-17T03:58:01.005Z,13.00
2022-10-17T04:01:44.154Z,12.98
2022-10-17T04:05:26.848Z,12.88
2022-10-17T04:09:09.684Z,12.84
2022-10-17T04:12:54.481Z,12.85
2022-10-17T04:16:39.469Z,12.74
2022-10-17T04:20:22.178Z,12.71
2022-10-17T04:24:05.140Z,12.61
2022-10-17T04:27:49.038Z,12.56
2022-10-17T04:31:31.719Z,12.50
2022-10-17T04:35:18.571Z,12.52
2022-10-17T04:39:01.792Z,12.52
2022-10-17T04:42:44.503Z,12.53
2022-10-17T04:46:27.630Z,12.52
2022-10-17T04:50:10.639Z,12.48
2022-10-17T04:53:54.730Z,12.48
2022-10-17T04:57:40.434Z,12.49
2022-10-17T05:01:24.546Z,12.52
2022-10-17T05:05:08.194Z,12.51
2022-10-17T05:08:51.045Z,12.49
2022-10-17T05:12:35.130Z,12.51
2022-10-17T05:16:17.817Z,12.52
2022-10-17T05:20:00.461Z,12.51
2022-10-17T05:23:43.239Z,12.56
2022-10-17T05:27:27.237Z,12.57
2022-10-17T05:31:12.765Z,12.49
2022-10-17T05:34:55.554Z,12.47
2022-10-17T05:38:38.224Z,12.53
2022-10-17T05:42:20.938Z,12.58
2022-10-17T05:46:07.353Z,12.63
2022-10-17T05:49:52.604Z,12.63
2022-10-17T05:53:38.158Z,12.64
2022-10-17T05:57:20.815Z,12.66
2022-10-17T06:01:07.069Z,12.61
2022-10-17T06:04:53.406Z,12.65
2022-10-17T06:08:38.872Z,12.61
2022-10-17T06:12:21.534Z,12.57
2022-10-17T06:16:04.279Z,12.54
2022-10-17T06:19:46.930Z,12.56
2022-10-17T06:23:31.047Z,12.57
2022-10-17T06:27:13.749Z,12.66
2022-10-17T06:30:56.366Z,12.73
2022-10-17T06:34:38.995Z,12.77
2022-10-17T06:38:22.186Z,12.81
2022-10-17T06:42:06.279Z,12.80
2022-10-17T06:45:48.993Z,12.89
2022-10-17T06:49:32.944Z,12.99
2022-10-17T06:53:15.688Z,13.08
2022-10-17T06:56:58.442Z,13.20
2022-10-17T07:00:42.667Z,13.27
2022-10-17T07:04:25.690Z,13.48
2022-10-17T07:08:08.752Z,13.72
2022-10-17T07:11:51.669Z,13.74
2022-10-17T07:15:34.339Z,13.74
2022-10-17T07:19:18.347Z,13.72
2022-10-17T07:23:01.082Z,13.76
2022-10-17T07:26:43.721Z,13.85
2022-10-17T07:30:26.733Z,13.95
2022-10-17T07:34:09.441Z,14.05
2022-10-17T07:37:53.464Z,14.14
2022-10-17T07:41:36.142Z,14.29
2022-10-17T07:45:19.127Z,14.41
2022-10-17T07:49:01.831Z,14.54
2022-10-17T07:52:44.536Z,14.64
2022-10-17T07:56:29.664Z,14.75
2022-10-17T08:00:13.175Z,14.87
2022-10-17T08:03:55.869Z,15.01
2022-10-17T08:07:39.033Z,15.13
2022-10-17T08:11:22.726Z,15.26
2022-10-17T08:15:08.627Z,15.39
2022-10-17T08:18:51.255Z,15.50
2022-10-17T08:22:34.376Z,15.64
2022-10-17T08:26:17.424Z,15.76
2022-10-17T08:30:00.320Z,16.02
2022-10-17T08:33:44.505Z,16.24
2022-10-17T08:37:27.489Z,16.38
2022-10-17T08:41:23.204Z,16.78
2022-10-17T08:45:14.655Z,17.13
2022-10-17T08:49:00.712Z,17.28
2022-10-17T08:52:47.857Z,17.40
2022-10-17T08:56:48.158Z,17.46
2022-10-17T09:00:32.212Z,17.47
2022-10-17T09:04:42.763Z,17.48
2022-10-17T09:08:40.087Z,17.53
2022-10-17T09:12:25.181Z,17.51
2022-10-17T09:16:20.726Z,17.53
2022-10-17T09:20:11.276Z,17.53
2022-10-17T09:24:03.803Z,17.57
2022-10-17T09:27:55.097Z,17.62
2022-10-17T09:31:43.346Z,17.75
2022-10-17T09:35:28.862Z,17.84
2022-10-17T09:39:14.469Z,17.88
2022-10-17T09:42:57.210Z,17.99
2022-10-17T09:46:40.056Z,18.23
2022-10-17T09:50:28.239Z,18.38
2022-10-17T09:54:21.123Z,18.45
2022-10-17T09:58:06.030Z,18.44
2022-10-17T10:01:48.689Z,18.58
2022-10-17T10:05:32.689Z,18.56
2022-10-17T10:09:23.017Z,18.64
2022-10-17T10:13:08.568Z,18.70
2022-10-17T10:16:53.606Z,18.80
2022-10-17T10:20:38.742Z,18.81
2022-10-17T10:24:21.784Z,18.89
2022-10-17T10:28:11.438Z,18.93
2022-10-17T10:31:54.544Z,19.13
2022-10-17T10:35:38.924Z,19.14
2022-10-17T10:39:31.866Z,19.29
2022-10-17T10:43:23.350Z,19.28
2022-10-17T10:47:24.897Z,19.28
2022-10-17T10:51:10.863Z,19.35
2022-10-17T10:54:58.076Z,19.39
2022-10-17T10:58:45.156Z,19.48
2022-10-17T11:02:32.154Z,19.59
2022-10-17T11:06:20.690Z,19.76
2022-10-17T11:10:11.476Z,19.82
2022-10-17T11:14:00.153Z,19.90
2022-10-17T11:17:47.132Z,20.06
2022-10-17T11:21:39.359Z,20.18
2022-10-17T11:25:36.002Z,20.35
2022-10-17T11:29:18.631Z,20.50
2022-10-17T11:33:02.420Z,20.67
2022-10-17T11:36:47.644Z,20.80
2022-10-17T11:40:33.232Z,20.90
2022-10-17T11:44:21.468Z,21.04
2022-10-17T11:48:07.722Z,21.34
2022-10-17T11:52:00.726Z,21.64
2022-10-17T11:55:44.444Z,21.58
2022-10-17T12:04:18.189Z,21.81
2022-10-17T12:08:06.124Z,21.95
2022-10-17T12:11:53.903Z,22.16
2022-10-17T12:15:36.742Z,22.35
2022-10-17T12:19:40.253Z,22.57
2022-10-17T12:23:29.241Z,22.68
2022-10-17T12:27:33.370Z,22.93
2022-10-17T12:31:29.679Z,23.28
2022-10-17T12:35:22.526Z,23.37
2022-10-17T12:39:50.390Z,23.62
2022-10-17T12:43:58.456Z,24.01
2022-10-17T12:47:41.090Z,24.38
2022-10-17T12:51:40.504Z,24.64
2022-10-17T12:55:25.321Z,24.89
2022-10-17T12:59:15.376Z,24.97
2022-10-17T13:03:04.964Z,25.22
2022-10-17T13:06:49.406Z,25.19
2022-10-17T13:10:35.063Z,25.18
2022-10-17T13:14:21.983Z,25.08
2022-10-17T13:18:05.340Z,25.03
2022-10-17T13:21:52.055Z,24.76
2022-10-17T13:25:38.828Z,24.87
2022-10-17T13:29:25.631Z,25.17
2022-10-17T13:33:22.758Z,25.46
2022-10-17T13:37:07.181Z,25.67
2022-10-17T13:40:50.645Z,25.96
2022-10-17T13:44:37.719Z,26.23
2022-10-17T13:48:23.043Z,26.49
2022-10-17T13:52:07.557Z,26.55
2022-10-17T13:56:22.799Z,26.58
2022-10-17T14:00:11.380Z,26.58
2022-10-17T14:04:07.830Z,26.56
2022-10-17T14:12:03.769Z,26.60
2022-10-17T14:16:02.006Z,26.60
2022-10-17T14:19:51.483Z,26.47
2022-10-17T14:23:40.486Z,26.62
2022-10-17T14:27:29.639Z,26.58
2022-10-17T14:31:25.555Z,26.66
2022-10-17T14:35:30.681Z,26.71
2022-10-17T14:39:20.205Z,26.74
2022-10-17T14:43:05.720Z,26.78
2022-10-17T14:46:53.025Z,26.75
2022-10-17T14:50:36.301Z,26.77
2022-10-17T14:54:21.307Z,26.69
2022-10-17T14:58:17.251Z,26.67
2022-10-17T15:02:01.432Z,26.71
2022-10-17T15:05:44.113Z,26.65
2022-10-17T15:09:28.882Z,26.59
2022-10-17T15:13:29.621Z,26.50
2022-10-17T15:17:16.892Z,26.37
2022-10-17T15:21:05.462Z,26.25
2022-10-17T15:25:00.304Z,26.24
2022-10-17T15:28:43.147Z,26.26
2022-10-17T15:32:27.191Z,26.06
2022-10-17T15:36:23.786Z,25.79
2022-10-17T15:40:07.996Z,25.41
2022-10-17T15:43:50.950Z,25.08
2022-10-17T15:47:35.260Z,24.80
2022-10-17T15:51:18.542Z,24.58
2022-10-17T15:55:04.301Z,24.35
2022-10-17T15:58:48.310Z,24.11
2022-10-17T16:02:31.115Z,23.78
2022-10-17T16:06:15.193Z,23.54
2022-10-17T16:09:57.845Z,23.31
2022-10-17T16:13:41.465Z,23.10
2022-10-17T16:17:26.727Z,22.80
2022-10-17T16:21:11.222Z,22.52
2022-10-17T16:24:58.888Z,22.33
2022-10-17T16:28:46.049Z,22.18
2022-10-17T16:32:29.518Z,22.05
2022-10-17T16:36:12.495Z,21.94
2022-10-17T16:39:56.452Z,21.84
2022-10-17T16:43:39.089Z,21.71
2022-10-17T16:47:24.649Z,21.60
2022-10-17T16:51:07.896Z,21.51
2022-10-17T16:54:50.820Z,21.41
2022-10-17T16:58:35.023Z,21.33
2022-10-17T17:02:28.134Z,21.25
2022-10-17T17:06:13.971Z,21.15
2022-10-17T17:09:56.669Z,21.04
2022-10-17T17:13:41.091Z,20.94
2022-10-17T17:17:56.678Z,20.81
2022-10-17T17:21:40.309Z,20.71
2022-10-17T17:25:23.285Z,20.58
2022-10-17T17:29:07.378Z,20.38
2022-10-17T17:33:19.488Z,20.19
2022-10-17T17:37:02.141Z,20.01
2022-10-17T17:40:50.444Z,19.91
2022-10-17T17:44:37.458Z,19.86
2022-10-17T17:48:29.234Z,19.77
2022-10-17T17:52:12.410Z,19.73
2022-10-17T17:56:02.592Z,19.60
2022-10-17T17:59:48.586Z,19.45
2022-10-17T18:03:50.813Z,19.32
2022-10-17T18:07:34.555Z,19.20
2022-10-17T18:11:22.037Z,19.25
2022-10-17T18:15:07.555Z,19.79
2022-10-17T18:19:11.524Z,19.80
2022-10-17T18:22:54.640Z,19.42
2022-10-17T18:26:37.499Z,18.95
2022-10-17T18:30:25.483Z,18.67
2022-10-17T18:34:22.936Z,18.56
2022-10-17T18:38:05.703Z,18.51
2022-10-17T18:41:48.467Z,18.46
2022-10-17T18:45:33.311Z,18.38
2022-10-17T18:49:18.856Z,18.23
2022-10-17T18:53:02.206Z,18.03
2022-10-17T18:56:47.429Z,17.86
2022-10-17T19:00:30.645Z,17.86
2022-10-17T19:04:57.694Z,17.85
2022-10-17T19:08:42.897Z,17.79
2022-10-17T19:12:25.572Z,17.72
2022-10-17T19:16:09.383Z,17.63
2022-10-17T19:19:55.698Z,17.54
2022-10-17T19:23:39.241Z,17.45
2022-10-17T19:27:24.045Z,17.35
2022-10-17T19:31:11.200Z,17.26
2022-10-17T19:34:57.601Z,17.19
2022-10-17T19:38:40.520Z,17.17
2022-10-17T19:42:24.546Z,17.14
2022-10-17T19:46:11.489Z,17.06
2022-10-17T19:49:55.760Z,17.00
2022-10-17T19:53:38.531Z,16.96
2022-10-17T19:57:21.168Z,16.91
2022-10-17T20:01:06.486Z,16.90
2022-10-17T20:05:17.616Z,16.87
2022-10-17T20:09:01.572Z,16.82
2022-10-17T20:12:44.225Z,16.73
2022-10-17T20:16:31.740Z,16.61
2022-10-17T20:20:14.946Z,16.56
2022-10-17T20:24:00.853Z,16.54
2022-10-17T20:27:43.520Z,16.48
2022-10-17T20:31:26.123Z,16.38
2022-10-17T20:35:34.508Z,16.31
2022-10-17T20:39:18.491Z,16.25
2022-10-17T20:43:01.233Z,16.02
2022-10-17T20:46:57.667Z,15.81
2022-10-17T20:50:45.689Z,15.80
2022-10-17T20:54:28.903Z,15.76
2022-10-17T20:58:15.157Z,15.66
2022-10-17T21:01:58.039Z,15.92
2022-10-17T21:05:41.338Z,15.95
2022-10-17T21:09:31.794Z,15.86
2022-10-17T21:13:16.875Z,15.80
2022-10-17T21:17:05.007Z,15.77
2022-10-17T21:20:49.673Z,15.67
2022-10-17T21:24:34.084Z,15.57
2022-10-17T21:28:17.224Z,15.47
2022-10-17T21:32:00.924Z,15.44
2022-10-17T21:35:48.476Z,15.44
2022-10-17T21:39:35.451Z,15.37
2022-10-17T21:43:19.495Z,15.28
2022-10-17T21:47:04.855Z,15.27
2022-10-17T21:50:56.503Z,15.18
2022-10-17T21:54:40.723Z,15.15
2022-10-17T21:58:23.587Z,15.17
2022-10-17T22:02:07.713Z,15.12
2022-10-17T22:06:12.963Z,15.08
2022-10-17T22:10:09.650Z,15.03
2022-10-17T22:13:59.253Z,14.98
2022-10-17T22:17:42.429Z,14.94
2022-10-17T22:21:25.684Z,14.85
2022-10-17T22:25:10.590Z,14.78
2022-10-17T22:28:53.457Z,14.75
2022-10-17T22:32:36.210Z,14.75
2022-10-17T22:36:21.936Z,14.74
2022-10-17T22:40:06.635Z,14.73
2022-10-17T22:43:55.577Z,14.71
2022-10-17T22:47:38.308Z,14.71
2022-10-17T22:51:36.017Z,14.69
2022-10-17T22:55:18.916Z,14.75
2022-10-17T22:59:03.041Z,14.71
2022-10-17T23:02:45.845Z,14.62
2022-10-17T23:06:47.167Z,14.57
2022-10-17T23:10:29.809Z,14.54
2022-10-17T23:14:13.937Z,14.50
2022-10-17T23:17:56.859Z,14.44
2022-10-17T23:21:39.720Z,14.40
2022-10-17T23:25:22.533Z,14.37
2022-10-17T23:29:05.312Z,14.38
2022-10-17T23:32:49.485Z,14.43
2022-10-17T23:36:57.545Z,14.46
2022-10-17T23:40:40.257Z,14.52
2022-10-17T23:44:23.833Z,14.50
2022-10-17T23:48:07.965Z,14.43
2022-10-17T23:51:56.939Z,14.25
2022-10-17T23:55:39.673Z,14.17
2022-10-17T23:59:22.274Z,14.14
